Time;durP1;ratioP1;P1;durP2;ratioP2;P2;SDS_P1;SDS_P2;PMS_P1;PMS_P2;Temp;Humidity;BMP_temperature;BMP_pressure;BME280_temperature;BME280_humidity;BME280_pressure;Samples;Min_cycle;Max_cycle;Signal;HPM_P1;HPM_P2
2022/08/24 00:01:12;;;;;;;43.90;39.85;;;19.10;99.90;;;;;;5040206;28;20056;-70
2022/08/24 00:03:39;;;;;;;40.65;37.10;;;19.10;99.90;;;;;;5053857;28;20050;-70
2022/08/24 00:06:08;;;;;;;43.28;39.22;;;19.00;99.90;;;;;;5046807;28;20044;-70
2022/08/24 00:08:35;;;;;;;44.20;40.28;;;19.00;99.90;;;;;;5043414;28;20424;-70
2022/08/24 00:11:01;;;;;;;45.17;41.10;;;19.00;99.90;;;;;;5046077;28;20037;-70
2022/08/24 00:13:27;;;;;;;47.00;42.60;;;18.90;99.90;;;;;;5039222;28;20059;-70
2022/08/24 00:15:54;;;;;;;48.22;43.53;;;18.90;99.90;;;;;;5044167;28;20047;-70
2022/08/24 00:18:20;;;;;;;52.85;47.70;;;18.80;99.90;;;;;;5063220;28;20450;-70
2022/08/24 00:20:47;;;;;;;51.78;46.60;;;18.80;99.90;;;;;;5042807;28;20131;-70
2022/08/24 00:23:13;;;;;;;49.58;44.60;;;18.80;99.90;;;;;;5054864;28;20068;-70
2022/08/24 00:25:38;;;;;;;50.40;45.35;;;18.70;99.90;;;;;;5043440;28;20060;-70
2022/08/24 00:28:04;;;;;;;50.45;45.65;;;18.70;99.90;;;;;;5024463;28;20048;-70
2022/08/24 00:30:31;;;;;;;52.55;47.40;;;18.70;99.90;;;;;;5043496;28;20128;-70
2022/08/24 00:32:57;;;;;;;51.17;45.97;;;18.70;99.90;;;;;;5061681;28;20114;-70
2022/08/24 00:35:23;;;;;;;50.67;45.88;;;18.70;99.90;;;;;;5044000;28;20084;-70
2022/08/24 00:37:50;;;;;;;46.88;42.78;;;18.70;99.90;;;;;;5049264;28;20443;-70
2022/08/24 00:40:21;;;;;;;46.53;42.25;;;18.70;99.90;;;;;;5027885;28;20051;-70
2022/08/24 00:42:47;;;;;;;52.42;47.03;;;18.70;99.90;;;;;;5042383;28;20463;-70
2022/08/24 00:45:15;;;;;;;54.50;49.20;;;18.70;99.90;;;;;;5046817;28;20320;-70
2022/08/24 00:47:49;;;;;;;48.35;43.67;;;18.60;99.90;;;;;;5060296;28;20072;-70
2022/08/24 00:50:28;;;;;;;47.58;43.08;;;18.60;99.90;;;;;;5031495;28;20040;-70
2022/08/24 00:53:01;;;;;;;49.15;44.60;;;18.50;99.90;;;;;;5046820;28;20075;-70
2022/08/24 00:55:35;;;;;;;51.22;46.42;;;18.50;99.90;;;;;;5064897;28;20408;-70
2022/08/24 00:58:06;;;;;;;52.33;46.88;;;18.50;99.90;;;;;;5044960;28;20407;-69
2022/08/24 01:00:38;;;;;;;52.00;47.05;;;18.50;99.90;;;;;;5064461;28;20473;-70
2022/08/24 01:03:05;;;;;;;49.85;45.00;;;18.50;99.90;;;;;;5023217;28;20040;-70
2022/08/24 01:05:35;;;;;;;53.08;47.85;;;18.40;99.90;;;;;;5047206;28;20036;-70
2022/08/24 01:08:03;;;;;;;53.10;47.97;;;18.40;99.90;;;;;;5056784;28;20057;-70
2022/08/24 01:10:34;;;;;;;51.88;47.10;;;18.40;99.90;;;;;;5060714;28;20059;-70
2022/08/24 01:13:04;;;;;;;49.58;44.78;;;18.30;99.90;;;;;;5043015;28;20044;-69
2022/08/24 01:15:36;;;;;;;53.58;48.50;;;18.30;99.90;;;;;;5045225;28;20094;-70
2022/08/24 01:20:54;;;;;;;54.33;49.10;;;18.30;99.90;;;;;;5047082;28;20048;-70
2022/08/24 01:23:23;;;;;;;50.27;45.37;;;18.20;99.90;;;;;;5040126;28;20054;-70
2022/08/24 01:25:49;;;;;;;50.25;45.45;;;18.20;99.90;;;;;;5040803;28;20041;-69
2022/08/24 01:28:18;;;;;;;50.33;45.63;;;18.20;99.90;;;;;;5045269;28;20040;-70
2022/08/24 01:30:45;;;;;;;52.60;47.38;;;18.20;99.90;;;;;;5061355;28;20036;-70
2022/08/24 01:33:22;;;;;;;50.60;45.88;;;18.10;99.90;;;;;;5040726;28;20062;-70
2022/08/24 01:35:48;;;;;;;48.40;44.13;;;18.10;99.90;;;;;;5033645;28;20165;-70
2022/08/24 01:38:16;;;;;;;50.50;46.05;;;18.10;99.90;;;;;;5039952;28;20484;-70
2022/08/24 01:40:47;;;;;;;52.05;47.22;;;18.10;99.90;;;;;;5063724;28;20024;-69
2022/08/24 01:43:13;;;;;;;54.92;49.83;;;18.00;99.90;;;;;;5061681;28;20040;-69
2022/08/24 01:45:40;;;;;;;56.25;50.80;;;18.00;99.90;;;;;;5047125;28;20036;-69
2022/08/24 01:48:06;;;;;;;57.38;51.80;;;18.00;99.90;;;;;;5046993;28;20151;-69
2022/08/24 01:50:31;;;;;;;53.88;48.88;;;18.00;99.90;;;;;;5069082;28;20107;-69
2022/08/24 01:53:00;;;;;;;53.60;48.60;;;18.00;99.90;;;;;;5062123;28;20327;-69
2022/08/24 01:55:27;;;;;;;52.30;47.30;;;18.00;99.90;;;;;;5048914;28;20040;-69
2022/08/24 01:57:53;;;;;;;49.45;45.03;;;17.90;99.90;;;;;;5030088;28;20407;-69
2022/08/24 02:00:19;;;;;;;55.50;50.25;;;17.90;99.90;;;;;;5043039;28;20068;-69
2022/08/24 02:02:45;;;;;;;47.88;43.53;;;17.90;99.90;;;;;;5067517;28;20056;-70
2022/08/24 02:05:13;;;;;;;47.97;43.72;;;17.90;99.90;;;;;;5053001;28;20046;-69
2022/08/24 02:07:39;;;;;;;44.83;40.92;;;17.80;99.90;;;;;;5067047;28;20052;-69
2022/08/24 02:10:07;;;;;;;54.67;49.80;;;17.80;99.90;;;;;;5067641;28;20029;-69
2022/08/24 02:12:36;;;;;;;55.65;49.75;;;17.80;99.90;;;;;;5028922;28;20045;-69
2022/08/24 02:15:04;;;;;;;50.70;46.08;;;17.80;99.90;;;;;;5044664;28;20155;-69
2022/08/24 02:17:30;;;;;;;49.95;45.53;;;17.80;99.90;;;;;;5025312;28;20080;-69
2022/08/24 02:19:56;;;;;;;45.63;41.72;;;17.80;99.90;;;;;;5044307;28;20106;-69
2022/08/24 02:22:22;;;;;;;49.08;44.47;;;17.70;99.90;;;;;;5060579;28;20095;-69
2022/08/24 02:24:47;;;;;;;52.63;47.50;;;17.70;99.90;;;;;;5047688;28;20032;-69
2022/08/24 02:27:15;;;;;;;49.47;44.83;;;17.70;99.90;;;;;;5049917;28;20064;-69
2022/08/24 02:29:42;;;;;;;48.25;43.95;;;17.70;99.90;;;;;;5064144;28;20032;-69
2022/08/24 02:32:08;;;;;;;54.38;49.35;;;17.70;99.90;;;;;;5044994;28;20072;-69
2022/08/24 02:34:33;;;;;;;52.47;47.63;;;17.70;99.90;;;;;;5045978;28;20099;-69
2022/08/24 02:36:59;;;;;;;56.45;50.85;;;17.60;99.90;;;;;;5050966;28;20047;-70
2022/08/24 02:39:26;;;;;;;49.88;45.45;;;17.70;99.90;;;;;;5048369;28;20080;-69
2022/08/24 02:41:52;;;;;;;47.28;43.13;;;17.60;99.90;;;;;;5047507;28;20383;-69
2022/08/24 02:44:18;;;;;;;47.75;43.53;;;17.60;99.90;;;;;;5057301;28;20041;-70
2022/08/24 02:46:44;;;;;;;51.53;46.83;;;17.60;99.90;;;;;;5065988;28;20040;-69
2022/08/24 02:49:10;;;;;;;47.72;43.47;;;17.60;99.90;;;;;;5052668;28;20032;-69
2022/08/24 02:51:36;;;;;;;53.05;48.05;;;17.50;99.90;;;;;;5050970;28;20488;-69
2022/08/24 02:54:04;;;;;;;51.38;46.42;;;17.50;99.90;;;;;;5050003;28;20489;-69
2022/08/24 02:56:30;;;;;;;52.65;47.75;;;17.50;99.90;;;;;;5046105;28;20084;-69
2022/08/24 02:58:57;;;;;;;48.70;43.97;;;17.50;99.90;;;;;;5045614;28;20714;-69
2022/08/24 03:01:24;;;;;;;50.08;45.55;;;17.40;99.90;;;;;;5040261;28;20133;-69
2022/08/24 03:03:50;;;;;;;47.30;43.10;;;17.40;99.90;;;;;;5046276;28;20048;-69
2022/08/24 03:06:16;;;;;;;55.85;50.55;;;17.40;99.90;;;;;;5043984;28;20465;-69
2022/08/24 03:08:43;;;;;;;52.30;47.53;;;17.40;99.90;;;;;;5041356;28;20044;-69
2022/08/24 03:11:09;;;;;;;47.47;43.22;;;17.30;99.90;;;;;;5046494;28;20519;-69
2022/08/24 03:13:35;;;;;;;55.45;50.40;;;17.30;99.90;;;;;;5033857;28;20135;-69
2022/08/24 03:16:01;;;;;;;63.42;57.15;;;17.30;99.90;;;;;;5046791;28;20052;-69
2022/08/24 03:18:27;;;;;;;60.78;55.03;;;17.30;99.90;;;;;;5065499;28;20036;-69
2022/08/24 03:20:54;;;;;;;54.17;49.22;;;17.30;99.90;;;;;;5053401;28;20043;-69
2022/08/24 03:23:22;;;;;;;56.45;50.97;;;17.20;99.90;;;;;;5049552;28;20115;-69
2022/08/24 03:25:49;;;;;;;53.17;48.13;;;17.20;99.90;;;;;;5047060;28;20037;-69
2022/08/24 03:28:15;;;;;;;61.40;55.33;;;17.20;99.90;;;;;;5050675;28;20054;-69
2022/08/24 03:30:42;;;;;;;57.15;51.58;;;17.20;99.90;;;;;;5057103;28;20033;-69
2022/08/24 03:33:09;;;;;;;57.97;52.50;;;17.10;99.90;;;;;;5042442;28;20048;-69
2022/08/24 03:35:34;;;;;;;57.70;51.90;;;17.10;99.90;;;;;;5062035;28;20136;-69
2022/08/24 03:38:00;;;;;;;56.05;50.58;;;17.10;99.90;;;;;;5068186;28;20124;-69
2022/08/24 03:40:27;;;;;;;49.40;44.97;;;17.10;99.90;;;;;;5049832;28;20032;-69
2022/08/24 03:42:53;;;;;;;50.38;45.55;;;17.00;99.90;;;;;;5046151;28;20132;-69
2022/08/24 03:45:21;;;;;;;46.92;42.45;;;17.00;99.90;;;;;;5048560;28;20032;-69
2022/08/24 03:47:47;;;;;;;50.70;45.65;;;17.00;99.90;;;;;;5044662;28;20066;-69
2022/08/24 03:50:13;;;;;;;48.00;43.50;;;16.90;99.90;;;;;;5046063;28;20044;-69
2022/08/24 03:52:40;;;;;;;53.15;47.78;;;16.90;99.90;;;;;;5038962;28;20041;-69
2022/08/24 03:55:07;;;;;;;45.85;41.42;;;16.90;99.90;;;;;;5042148;28;20357;-70
2022/08/24 03:57:33;;;;;;;48.75;44.20;;;16.90;99.90;;;;;;5056642;28;20045;-69
2022/08/24 04:00:00;;;;;;;46.88;42.47;;;16.80;99.90;;;;;;5060588;28;20376;-69
2022/08/24 04:02:26;;;;;;;39.13;35.72;;;16.80;99.90;;;;;;5043713;28;20040;-70
2022/08/24 04:04:51;;;;;;;41.58;37.95;;;16.80;99.90;;;;;;5047721;28;20094;-69
2022/08/24 04:07:18;;;;;;;41.85;37.85;;;16.80;99.90;;;;;;5046623;28;20044;-69
2022/08/24 04:09:43;;;;;;;42.50;38.55;;;16.80;99.90;;;;;;5047352;28;20075;-69
2022/08/24 04:12:09;;;;;;;42.22;38.35;;;16.80;99.90;;;;;;5043013;28;20068;-69
2022/08/24 04:14:35;;;;;;;46.22;42.03;;;16.80;99.90;;;;;;5059228;28;20045;-69
2022/08/24 04:17:01;;;;;;;46.20;41.88;;;16.80;99.90;;;;;;5038067;28;20038;-69
2022/08/24 04:19:27;;;;;;;49.75;44.83;;;16.80;99.90;;;;;;5036794;28;20079;-69
2022/08/24 04:21:53;;;;;;;41.25;37.75;;;16.80;99.90;;;;;;5029191;28;20081;-69
2022/08/24 04:24:19;;;;;;;43.95;39.92;;;16.80;99.90;;;;;;5057265;28;20037;-69
2022/08/24 04:26:45;;;;;;;46.80;42.67;;;16.80;99.90;;;;;;5062161;28;20071;-69
2022/08/24 04:29:13;;;;;;;41.35;37.72;;;16.80;99.90;;;;;;5042494;28;20428;-69
2022/08/24 04:31:41;;;;;;;42.42;38.60;;;16.80;99.90;;;;;;5048463;28;20051;-69
2022/08/24 04:34:08;;;;;;;44.22;40.42;;;16.80;99.90;;;;;;5043291;28;20092;-69
2022/08/24 04:36:36;;;;;;;40.70;37.00;;;16.80;99.90;;;;;;5048548;28;20040;-69
2022/08/24 04:39:04;;;;;;;41.08;37.47;;;16.80;99.90;;;;;;5042074;28;20049;-69
2022/08/24 04:41:30;;;;;;;43.85;39.85;;;16.80;99.90;;;;;;5051652;28;20078;-69
2022/08/24 04:43:55;;;;;;;41.65;37.70;;;16.80;99.90;;;;;;5043072;28;20044;-69
2022/08/24 04:46:21;;;;;;;47.50;43.20;;;16.80;99.90;;;;;;5041779;28;20477;-69
2022/08/24 04:48:48;;;;;;;51.95;46.97;;;16.80;99.90;;;;;;5047778;28;20039;-69
2022/08/24 04:51:16;;;;;;;51.33;46.55;;;16.80;99.90;;;;;;5041920;28;20116;-69
2022/08/24 04:53:43;;;;;;;48.63;43.78;;;16.80;99.90;;;;;;5045748;28;20099;-69
2022/08/24 04:56:12;;;;;;;47.88;43.35;;;16.80;99.90;;;;;;5046753;28;20470;-69
2022/08/24 04:58:38;;;;;;;47.58;43.08;;;16.80;99.90;;;;;;5042992;28;20503;-69
2022/08/24 05:01:18;;;;;;;43.13;39.22;;;16.80;99.90;;;;;;5045971;28;20131;-69
2022/08/24 05:03:46;;;;;;;43.83;39.88;;;16.80;99.90;;;;;;5057265;28;20049;-69
2022/08/24 05:06:14;;;;;;;45.33;41.25;;;16.90;99.90;;;;;;5042517;28;20376;-69
2022/08/24 05:08:40;;;;;;;43.58;39.72;;;16.90;99.90;;;;;;5056460;28;20041;-69
2022/08/24 05:11:07;;;;;;;46.60;42.20;;;16.90;99.90;;;;;;5023393;28;20099;-69
2022/08/24 05:13:37;;;;;;;46.90;42.33;;;16.90;99.90;;;;;;5065499;28;20041;-69
2022/08/24 05:16:07;;;;;;;43.70;39.60;;;16.90;99.90;;;;;;5045929;28;20037;-69
2022/08/24 05:18:32;;;;;;;44.60;40.50;;;17.00;99.90;;;;;;5043922;28;20506;-69
2022/08/24 05:20:58;;;;;;;49.28;44.78;;;17.00;99.90;;;;;;5063607;28;20036;-69
2022/08/24 05:23:25;;;;;;;43.75;39.88;;;17.10;99.90;;;;;;5053541;28;20055;-69
2022/08/24 05:25:51;;;;;;;45.47;41.30;;;17.10;99.90;;;;;;5047379;28;21542;-69
2022/08/24 05:28:17;;;;;;;43.22;39.33;;;17.20;99.90;;;;;;5050653;28;20059;-70
2022/08/24 05:30:43;;;;;;;48.22;43.83;;;17.20;99.90;;;;;;5043056;28;20094;-69
2022/08/24 05:33:09;;;;;;;54.80;49.38;;;17.30;99.90;;;;;;5050071;28;20120;-69
2022/08/24 05:35:39;;;;;;;49.00;44.42;;;17.40;99.90;;;;;;5072413;28;20071;-69
2022/08/24 05:38:05;;;;;;;50.05;45.45;;;17.50;99.90;;;;;;5071866;28;20032;-69
2022/08/24 05:40:31;;;;;;;49.45;44.75;;;17.80;99.90;;;;;;5051970;28;20040;-70
2022/08/24 05:42:56;;;;;;;49.85;45.10;;;18.10;99.90;;;;;;5052387;28;20149;-70
2022/08/24 05:45:22;;;;;;;46.45;42.28;;;18.50;99.90;;;;;;5047889;28;20118;-70
2022/08/24 05:47:48;;;;;;;50.00;45.33;;;18.70;99.90;;;;;;5069864;28;20103;-70
2022/08/24 05:50:13;;;;;;;48.67;44.15;;;19.00;99.90;;;;;;5048235;28;20045;-70
2022/08/24 05:52:39;;;;;;;49.53;44.83;;;19.40;99.90;;;;;;5044296;28;20068;-70
2022/08/24 05:55:05;;;;;;;48.63;44.20;;;19.80;99.90;;;;;;5048728;28;20063;-70
2022/08/24 05:57:33;;;;;;;58.13;52.92;;;19.90;99.90;;;;;;5025549;28;20088;-70
2022/08/24 06:00:00;;;;;;;59.67;53.80;;;19.80;99.90;;;;;;5046963;28;20152;-70
2022/08/24 06:02:26;;;;;;;55.42;50.28;;;19.60;99.90;;;;;;5070680;28;20543;-70
2022/08/24 06:04:51;;;;;;;48.95;44.45;;;19.50;99.90;;;;;;5053984;28;20120;-70
2022/08/24 06:07:17;;;;;;;48.50;44.15;;;19.40;99.90;;;;;;5048553;28;20044;-70
2022/08/24 06:09:43;;;;;;;53.83;49.03;;;19.30;99.90;;;;;;5052693;28;20037;-70
2022/08/24 06:12:10;;;;;;;54.25;49.10;;;19.40;99.90;;;;;;5050923;28;20037;-70
2022/08/24 06:14:37;;;;;;;54.60;49.50;;;19.40;99.90;;;;;;5051326;28;20078;-70
2022/08/24 06:17:05;;;;;;;51.03;46.42;;;19.50;99.90;;;;;;5048819;28;20067;-70
2022/08/24 06:19:31;;;;;;;50.30;45.78;;;19.40;99.90;;;;;;5067137;28;20095;-70
2022/08/24 06:21:57;;;;;;;50.08;45.67;;;19.50;99.90;;;;;;5048374;28;20113;-70
2022/08/24 06:27:20;;;;;;;47.10;42.97;;;19.60;99.90;;;;;;5049494;28;20071;-70
2022/08/24 06:27:21;;;;;;;47.25;43.10;;;19.60;99.90;;;;;;5071018;28;20051;-70
2022/08/24 06:29:53;;;;;;;47.92;43.35;;;19.70;99.90;;;;;;5050666;28;20033;-70
2022/08/24 06:32:19;;;;;;;49.08;44.88;;;19.70;99.90;;;;;;5061782;28;20048;-70
2022/08/24 06:34:45;;;;;;;48.92;44.30;;;19.80;99.90;;;;;;5047332;28;20110;-70
2022/08/24 06:37:11;;;;;;;49.75;45.40;;;19.90;99.90;;;;;;5044439;28;20063;-70
2022/08/24 06:39:37;;;;;;;47.28;43.00;;;20.00;99.90;;;;;;5045202;28;20052;-70
2022/08/24 06:42:03;;;;;;;49.53;45.13;;;20.10;99.90;;;;;;5061672;28;20044;-70
2022/08/24 06:44:30;;;;;;;49.17;44.80;;;20.20;99.90;;;;;;5025524;28;20052;-70
2022/08/24 06:46:56;;;;;;;50.78;46.38;;;20.20;99.90;;;;;;5042325;28;20064;-70
2022/08/24 06:49:23;;;;;;;52.92;48.30;;;20.30;99.90;;;;;;5063034;28;20484;-70
2022/08/24 06:51:49;;;;;;;50.25;45.88;;;20.50;99.90;;;;;;5036643;28;20148;-70
2022/08/24 06:54:14;;;;;;;50.85;46.17;;;20.60;99.90;;;;;;5063575;28;20040;-70
2022/08/24 06:56:40;;;;;;;51.80;47.20;;;20.80;99.90;;;;;;5055450;28;20045;-70
2022/08/24 06:59:06;;;;;;;50.10;45.53;;;20.90;99.90;;;;;;5047647;28;20048;-70
2022/08/24 07:01:31;;;;;;;49.38;44.83;;;21.10;99.90;;;;;;5049220;28;20067;-70
2022/08/24 07:03:57;;;;;;;48.90;44.35;;;21.30;99.90;;;;;;5041717;28;20047;-70
2022/08/24 07:06:24;;;;;;;48.58;44.17;;;21.40;99.90;;;;;;5040719;28;20106;-70
2022/08/24 07:08:51;;;;;;;46.17;42.08;;;21.60;99.90;;;;;;5040431;28;20056;-70
2022/08/24 07:11:17;;;;;;;45.30;41.05;;;21.70;99.90;;;;;;5028382;28;20068;-70
2022/08/24 07:13:46;;;;;;;44.60;40.67;;;21.90;99.90;;;;;;5041932;28;20392;-70
2022/08/24 07:16:12;;;;;;;42.50;38.83;;;22.00;99.90;;;;;;5045532;28;20102;-70
2022/08/24 07:18:39;;;;;;;42.65;38.72;;;22.20;99.90;;;;;;5044617;28;20083;-70
2022/08/24 07:21:05;;;;;;;44.47;40.25;;;22.40;99.90;;;;;;5047747;28;20579;-70
2022/08/24 07:23:32;;;;;;;43.85;39.67;;;22.50;99.90;;;;;;5063221;28;20039;-71
2022/08/24 07:26:05;;;;;;;40.88;37.10;;;22.70;99.90;;;;;;5027032;28;20056;-71
2022/08/24 07:28:30;;;;;;;43.17;39.28;;;22.80;99.90;;;;;;5040968;28;20049;-71
2022/08/24 07:30:56;;;;;;;42.45;38.47;;;23.00;99.90;;;;;;5021022;28;20082;-71
2022/08/24 07:33:22;;;;;;;41.80;38.03;;;23.10;99.90;;;;;;5063711;28;20040;-71
2022/08/24 07:35:48;;;;;;;39.80;35.92;;;23.30;99.90;;;;;;5059202;28;20043;-71
2022/08/24 07:38:14;;;;;;;36.67;33.42;;;23.40;99.90;;;;;;5045349;28;20436;-71
2022/08/24 07:40:39;;;;;;;29.35;26.75;;;23.50;99.90;;;;;;5043803;28;20044;-71
2022/08/24 07:43:05;;;;;;;35.53;32.33;;;23.60;99.90;;;;;;5048212;28;20523;-71
2022/08/24 07:45:32;;;;;;;35.38;32.38;;;23.80;99.90;;;;;;5060708;28;20120;-71
2022/08/24 07:47:58;;;;;;;33.97;30.95;;;24.00;99.90;;;;;;5045387;28;20445;-71
2022/08/24 07:50:24;;;;;;;34.05;30.73;;;24.20;99.90;;;;;;5031492;28;20074;-71
2022/08/24 07:52:50;;;;;;;31.15;28.45;;;24.50;99.90;;;;;;5061476;28;20578;-71
2022/08/24 07:55:16;;;;;;;26.83;24.25;;;24.90;99.90;;;;;;5035740;28;20412;-71
2022/08/24 07:57:43;;;;;;;26.60;24.17;;;25.10;99.90;;;;;;5026078;28;20132;-71
2022/08/24 08:00:11;;;;;;;19.65;17.73;;;25.40;99.90;;;;;;5060419;28;20401;-71
2022/08/24 08:02:39;;;;;;;21.95;19.70;;;26.00;99.90;;;;;;5050896;28;20461;-71
2022/08/24 08:05:05;;;;;;;16.83;15.05;;;26.60;99.90;;;;;;5065851;28;20083;-69
2022/08/24 08:07:31;;;;;;;16.75;15.07;;;27.40;99.90;;;;;;5048848;28;20045;-71
2022/08/24 08:09:57;;;;;;;16.05;14.43;;;28.10;99.90;;;;;;5047822;28;20059;-71
2022/08/24 08:12:23;;;;;;;17.27;15.43;;;28.60;99.40;;;;;;5028681;28;20051;-71
2022/08/24 08:14:48;;;;;;;15.20;13.60;;;29.10;98.00;;;;;;5035889;28;20044;-71
2022/08/24 08:17:15;;;;;;;13.05;11.73;;;29.50;95.80;;;;;;5040107;28;20044;-71
2022/08/24 08:19:42;;;;;;;13.73;10.70;;;29.70;93.00;;;;;;5044160;28;20075;-71
2022/08/24 08:24:52;;;;;;;12.98;11.68;;;30.20;91.70;;;;;;5050513;28;20043;-70
2022/08/24 08:27:20;;;;;;;12.20;10.88;;;30.50;88.30;;;;;;5066087;28;20500;-70
2022/08/24 08:29:47;;;;;;;15.30;11.45;;;30.80;88.30;;;;;;5066515;28;20088;-71
2022/08/24 08:32:15;;;;;;;11.75;10.70;;;31.20;86.50;;;;;;5056373;28;20041;-71
2022/08/24 08:34:45;;;;;;;13.90;12.50;;;31.60;85.20;;;;;;5047668;28;20051;-71
2022/08/24 08:37:12;;;;;;;14.73;11.18;;;31.70;82.30;;;;;;5049941;28;20500;-71
2022/08/24 08:39:39;;;;;;;13.38;11.32;;;32.00;81.30;;;;;;5062938;28;20036;-71
2022/08/24 08:42:32;;;;;;;11.63;9.73;;;32.20;77.80;;;;;;5040193;28;20341;-71
2022/08/24 08:45:20;;;;;;;15.73;10.38;;;32.50;78.50;;;;;;5068730;28;20043;-71
2022/08/24 08:48:07;;;;;;;11.80;9.80;;;32.80;72.70;;;;;;5061952;28;20044;-71
2022/08/24 08:50:54;;;;;;;12.77;9.65;;;32.70;71.90;;;;;;5043442;28;20458;-71
2022/08/24 08:53:47;;;;;;;14.10;11.20;;;32.70;72.10;;;;;;5065070;28;20047;-71
2022/08/24 08:56:52;;;;;;;11.45;9.80;;;32.90;70.30;;;;;;5047878;28;20129;-71
2022/08/24 08:59:45;;;;;;;13.65;11.20;;;33.20;69.40;;;;;;5052526;28;20151;-71
2022/08/24 09:02:20;;;;;;;;;;;33.30;70.10;;;;;;5052818;28;20519;-71
2022/08/24 09:05:04;;;;;;;13.45;11.57;;;33.60;66.50;;;;;;5047843;28;19974;-70
2022/08/24 09:07:43;;;;;;;10.45;9.10;;;33.40;66.50;;;;;;5057939;28;20044;-71
2022/08/24 09:10:37;;;;;;;9.55;8.05;;;33.40;65.00;;;;;;5046881;28;20090;-71
2022/08/24 09:13:46;;;;;;;10.30;9.07;;;33.60;67.00;;;;;;5046468;28;20163;-70
2022/08/24 09:16:14;;;;;;;10.82;8.82;;;33.70;66.60;;;;;;5067037;28;20048;-70
2022/08/24 09:18:59;;;;;;;9.23;8.32;;;33.90;65.00;;;;;;5048209;28;20247;-70
2022/08/24 09:21:59;;;;;;;9.82;8.80;;;33.90;63.40;;;;;;5044441;28;20040;-70
2022/08/24 09:24:53;;;;;;;9.70;8.15;;;34.00;64.60;;;;;;5052560;28;20431;-70
2022/08/24 09:27:50;;;;;;;11.50;8.98;;;34.10;63.90;;;;;;5048615;28;20060;-70
2022/08/24 09:30:22;;;;;;;12.30;9.70;;;34.20;61.30;;;;;;5042763;28;20638;-70
2022/08/24 09:32:58;;;;;;;11.30;6.97;;;34.10;62.10;;;;;;5027582;28;20068;-70
2022/08/24 09:35:34;;;;;;;7.70;6.90;;;34.30;63.10;;;;;;5046920;28;20036;-70
2022/08/24 09:38:30;;;;;;;9.00;7.20;;;34.50;60.00;;;;;;5033505;28;20413;-70
2022/08/24 09:41:05;;;;;;;7.95;7.18;;;34.40;61.30;;;;;;5068734;28;20045;-70
2022/08/24 09:44:09;;;;;;;9.73;8.25;;;34.40;61.00;;;;;;5068581;28;20037;-70
2022/08/24 09:46:54;;;;;;;11.02;6.72;;;34.40;61.10;;;;;;5051405;28;20055;-70
2022/08/24 09:49:36;;;;;;;9.70;7.78;;;34.30;62.20;;;;;;5051274;28;20041;-70
2022/08/24 09:52:05;;;;;;;8.38;6.30;;;34.40;61.30;;;;;;5072997;28;20376;-70
2022/08/24 09:54:46;;;;;;;6.35;5.43;;;34.50;60.70;;;;;;5060114;28;20052;-70
2022/08/24 09:57:28;;;;;;;11.10;4.10;;;34.60;59.40;;;;;;5046180;28;20064;-70
2022/08/24 10:00:27;;;;;;;5.68;3.75;;;34.80;60.00;;;;;;5066986;28;20049;-71
2022/08/24 10:03:01;;;;;;;7.30;3.80;;;34.90;58.50;;;;;;5052521;28;20062;-71
2022/08/24 10:06:00;;;;;;;7.18;4.45;;;34.80;58.40;;;;;;5068451;28;20064;-70
2022/08/24 10:08:44;;;;;;;7.75;3.25;;;34.70;57.50;;;;;;5070019;28;20105;-70
2022/08/24 10:11:41;;;;;;;3.08;2.20;;;34.70;58.00;;;;;;5072759;28;20051;-70
2022/08/24 10:14:10;;;;;;;4.50;2.65;;;34.70;56.80;;;;;;5070443;28;20311;-71
2022/08/24 10:16:51;;;;;;;5.35;3.28;;;34.60;57.60;;;;;;5052172;28;20044;-71
2022/08/24 10:19:55;;;;;;;9.25;2.58;;;34.60;57.10;;;;;;5052514;28;20079;-71
2022/08/24 10:22:39;;;;;;;6.93;3.03;;;34.70;56.70;;;;;;5055651;28;20036;-71
2022/08/24 10:25:22;;;;;;;6.05;2.92;;;34.70;58.20;;;;;;5049097;28;20045;-71
2022/08/24 10:27:58;;;;;;;;;;;34.90;54.20;;;;;;5053995;28;20049;-71
2022/08/24 10:30:49;;;;;;;3.75;2.63;;;34.80;55.70;;;;;;5074036;28;19916;-71
2022/08/24 10:33:23;;;;;;;5.68;2.05;;;34.80;57.00;;;;;;5080364;28;20067;-76
2022/08/24 10:36:04;;;;;;;3.85;2.55;;;34.90;57.50;;;;;;5061704;28;20103;-74
2022/08/24 10:41:54;;;;;;;4.55;3.30;;;34.70;55.20;;;;;;5056981;28;20080;-72
2022/08/24 10:44:34;;;;;;;3.28;2.60;;;34.50;55.20;;;;;;5060198;28;20862;-71
2022/08/24 10:47:05;;;;;;;4.95;2.08;;;34.30;55.40;;;;;;5061435;28;20053;-71
2022/08/24 10:49:34;;;;;;;4.30;1.80;;;34.10;55.70;;;;;;5064235;28;20044;-72
2022/08/24 10:52:08;;;;;;;3.88;1.92;;;34.20;56.90;;;;;;5065260;28;20148;-72
2022/08/24 10:54:35;;;;;;;4.05;1.40;;;34.10;54.80;;;;;;5068232;28;20434;-72
2022/08/24 10:57:27;;;;;;;1.95;1.05;;;34.10;58.00;;;;;;5064954;28;20072;-72
2022/08/24 11:00:10;;;;;;;4.15;1.02;;;34.30;57.30;;;;;;5048056;28;20497;-72
2022/08/24 11:02:38;;;;;;;2.75;1.13;;;34.50;55.80;;;;;;5059717;28;20048;-72
2022/08/24 11:05:10;;;;;;;3.55;0.95;;;34.50;55.70;;;;;;5044242;28;20520;-72
2022/08/24 11:07:36;;;;;;;2.58;1.10;;;34.50;56.00;;;;;;5062589;28;20040;-73
2022/08/24 11:10:08;;;;;;;3.92;1.40;;;34.60;55.20;;;;;;5064560;28;20032;-73
2022/08/24 11:12:42;;;;;;;3.10;1.75;;;34.80;54.90;;;;;;5059557;28;20051;-74
2022/08/24 11:15:17;;;;;;;5.43;2.22;;;34.90;54.50;;;;;;5061012;28;20037;-73
2022/08/24 11:18:01;;;;;;;2.97;1.25;;;35.10;53.20;;;;;;5061914;28;20041;-72
2022/08/24 11:20:32;;;;;;;3.63;1.13;;;35.10;54.60;;;;;;5060381;28;20040;-73
2022/08/24 11:23:03;;;;;;;2.33;0.70;;;35.30;54.80;;;;;;5063048;28;20036;-73
2022/08/24 11:25:32;;;;;;;7.28;1.80;;;35.30;53.20;;;;;;5059619;28;20131;-73
2022/08/24 11:28:13;;;;;;;3.63;1.20;;;35.30;53.20;;;;;;5067676;28;20044;-73
2022/08/24 11:30:40;;;;;;;3.28;1.10;;;35.40;51.80;;;;;;5037447;28;20126;-73
2022/08/24 11:33:33;;;;;;;2.03;1.10;;;35.50;52.10;;;;;;5039703;28;20047;-72
2022/08/24 11:36:00;;;;;;;3.30;1.00;;;35.90;52.50;;;;;;5061656;28;20099;-71
2022/08/24 11:38:31;;;;;;;3.03;1.10;;;36.00;51.90;;;;;;5063953;28;20531;-73
2022/08/24 11:41:11;;;;;;;3.13;1.75;;;36.10;52.00;;;;;;5064306;28;20048;-73
2022/08/24 11:43:58;;;;;;;4.15;2.22;;;36.10;51.60;;;;;;5066626;28;20036;-72
2022/08/24 11:46:55;;;;;;;4.22;1.90;;;35.90;50.10;;;;;;5064361;28;20060;-72
2022/08/24 11:49:38;;;;;;;5.28;1.45;;;35.40;49.30;;;;;;5050154;28;20079;-73
2022/08/24 11:52:18;;;;;;;5.28;1.70;;;35.10;51.30;;;;;;5057458;28;20119;-73
2022/08/24 11:55:02;;;;;;;3.70;1.50;;;35.40;51.20;;;;;;5061934;28;20108;-74
2022/08/24 11:58:01;;;;;;;4.75;2.38;;;35.40;52.00;;;;;;5053481;28;20049;-74
2022/08/24 12:00:44;;;;;;;2.50;2.03;;;35.50;51.70;;;;;;5028063;28;20049;-74
2022/08/24 12:03:25;;;;;;;3.75;2.90;;;35.40;51.00;;;;;;5060120;28;20049;-73
2022/08/24 12:06:01;;;;;;;3.03;1.73;;;35.30;50.80;;;;;;5047447;28;20048;-74
2022/08/24 12:08:45;;;;;;;4.25;2.00;;;35.20;52.10;;;;;;5061900;28;20477;-73
2022/08/24 12:11:22;;;;;;;4.03;1.40;;;35.30;51.30;;;;;;5066716;28;20448;-74
2022/08/24 12:14:08;;;;;;;3.63;1.30;;;35.50;51.80;;;;;;5062324;28;20047;-72
2022/08/24 12:16:56;;;;;;;1.65;0.75;;;36.20;52.70;;;;;;5056824;28;20523;-73
2022/08/24 12:19:36;;;;;;;2.17;1.10;;;36.70;49.50;;;;;;5058243;28;20051;-74
2022/08/24 12:22:05;;;;;;;2.05;0.70;;;36.70;48.90;;;;;;5056060;28;20037;-72
2022/08/24 12:24:42;;;;;;;3.17;0.65;;;36.70;48.50;;;;;;5060120;28;20040;-73
2022/08/24 12:27:19;;;;;;;1.80;0.70;;;37.00;48.80;;;;;;5058859;28;20123;-73
2022/08/24 12:30:00;;;;;;;3.28;0.77;;;37.10;47.70;;;;;;5045256;28;20396;-73
2022/08/24 12:32:39;;;;;;;1.13;0.55;;;37.20;47.50;;;;;;5061278;28;20056;-74
2022/08/24 12:35:09;;;;;;;1.75;0.65;;;37.10;48.20;;;;;;5066965;28;20036;-74
2022/08/24 12:37:56;;;;;;;2.08;0.70;;;37.10;46.90;;;;;;5060481;28;20068;-73
2022/08/24 12:40:25;;;;;;;2.15;0.60;;;37.00;45.90;;;;;;5057815;28;20090;-74
2022/08/24 12:43:05;;;;;;;4.22;0.70;;;36.90;47.30;;;;;;5053266;28;20033;-73
2022/08/24 12:45:31;;;;;;;2.08;0.80;;;37.00;47.40;;;;;;5037868;28;20049;-74
2022/08/24 12:48:14;;;;;;;2.67;0.90;;;37.20;46.90;;;;;;5058400;28;20419;-70
2022/08/24 12:51:04;;;;;;;3.67;1.30;;;37.20;47.50;;;;;;5075495;28;20052;-69
2022/08/24 12:54:02;;;;;;;2.33;0.80;;;37.40;46.50;;;;;;5065403;28;20542;-70
2022/08/24 12:56:58;;;;;;;2.05;0.65;;;37.30;47.50;;;;;;5072620;28;20108;-76
2022/08/24 12:59:32;;;;;;;1.60;0.63;;;37.20;48.80;;;;;;5049461;28;20045;-69
2022/08/24 13:02:19;;;;;;;1.90;0.70;;;37.30;49.60;;;;;;5068515;28;20111;-71
2022/08/24 13:04:48;;;;;;;2.88;0.50;;;37.70;47.90;;;;;;5029354;28;20132;-71